createdAt,value
2023-01-18T00:00:46.538Z,1.68
2023-01-18T00:01:46.615Z,1.68
2023-01-18T00:02:46.517Z,1.68
2023-01-18T00:03:46.525Z,1.71
2023-01-18T00:04:46.525Z,1.71
2023-01-18T00:05:46.497Z,1.73
2023-01-18T00:06:46.478Z,1.73
2023-01-18T00:07:46.506Z,1.74
2023-01-18T00:08:46.487Z,1.74
2023-01-18T00:09:46.465Z,1.74
2023-01-18T00:10:46.437Z,1.77
2023-01-18T00:11:46.427Z,1.73
2023-01-18T00:12:46.419Z,1.74
2023-01-18T00:13:46.437Z,1.74
2023-01-18T00:14:46.386Z,1.74
2023-01-18T00:15:46.398Z,1.73
2023-01-18T00:16:46.366Z,1.74
2023-01-18T00:17:46.367Z,1.74
2023-01-18T00:18:46.343Z,1.74
2023-01-18T00:19:46.359Z,1.74
2023-01-18T00:20:46.333Z,1.76
2023-01-18T00:21:46.340Z,1.77
2023-01-18T00:22:46.313Z,1.77
2023-01-18T00:23:46.314Z,1.77
2023-01-18T00:24:46.293Z,1.78
2023-01-18T00:25:46.308Z,1.76
2023-01-18T00:26:46.290Z,1.74
2023-01-18T00:27:46.273Z,1.76
2023-01-18T00:28:46.249Z,1.76
2023-01-18T00:29:46.257Z,1.76
2023-01-18T00:30:46.237Z,1.73
2023-01-18T00:31:46.321Z,1.74
2023-01-18T00:32:46.208Z,1.76
2023-01-18T00:33:46.202Z,1.77
2023-01-18T00:34:46.183Z,1.77
2023-01-18T00:35:46.200Z,1.80
2023-01-18T00:36:46.163Z,1.77
2023-01-18T00:37:46.162Z,1.76
2023-01-18T00:38:46.141Z,1.77
2023-01-18T00:39:46.134Z,1.77
2023-01-18T00:40:46.133Z,1.77
2023-01-18T00:41:46.147Z,1.73
2023-01-18T00:42:46.091Z,1.74
2023-01-18T00:43:46.095Z,1.73
2023-01-18T00:44:46.067Z,1.73
2023-01-18T00:45:46.124Z,1.73
2023-01-18T00:46:46.064Z,1.71
2023-01-18T00:47:46.083Z,1.71
2023-01-18T00:48:46.035Z,1.70
2023-01-18T00:49:46.046Z,1.70
2023-01-18T00:50:46.014Z,1.68
2023-01-18T00:51:46.016Z,1.70
2023-01-18T00:52:45.986Z,1.70
2023-01-18T00:53:46.034Z,1.68
2023-01-18T00:54:45.972Z,1.70
2023-01-18T00:55:45.984Z,1.71
2023-01-18T00:56:45.947Z,1.73
2023-01-18T00:57:45.969Z,1.70
2023-01-18T00:58:45.927Z,1.70
2023-01-18T00:59:45.943Z,1.71
2023-01-18T01:00:46.051Z,1.73
2023-01-18T01:01:46.081Z,1.73
2023-01-18T01:02:45.974Z,1.74
2023-01-18T01:03:45.887Z,1.74
2023-01-18T01:04:45.868Z,1.77
2023-01-18T01:05:45.887Z,1.74
2023-01-18T01:06:46.353Z,1.76
2023-01-18T01:07:45.853Z,1.74
2023-01-18T01:08:45.822Z,1.74
2023-01-18T01:09:45.830Z,1.74
2023-01-18T01:10:45.820Z,1.73
2023-01-18T01:11:45.816Z,1.74
2023-01-18T01:12:45.794Z,1.74
2023-01-18T01:13:45.775Z,1.73
2023-01-18T01:14:45.791Z,1.73
2023-01-18T01:15:45.769Z,1.70
2023-01-18T01:16:45.815Z,1.68
2023-01-18T01:17:45.743Z,1.68
2023-01-18T01:18:45.732Z,1.70
2023-01-18T01:19:45.751Z,1.67
2023-01-18T01:20:45.689Z,1.66
2023-01-18T01:21:45.704Z,1.67
2023-01-18T01:22:45.676Z,1.70
2023-01-18T01:23:45.672Z,1.68
2023-01-18T01:24:45.691Z,1.68
2023-01-18T01:25:45.659Z,1.68
2023-01-18T01:26:45.651Z,1.71
2023-01-18T01:27:45.646Z,1.70
2023-01-18T01:28:45.613Z,1.68
2023-01-18T01:29:45.597Z,1.68
2023-01-18T01:30:45.715Z,1.67
2023-01-18T01:31:45.579Z,1.67
2023-01-18T01:32:45.599Z,1.67
2023-01-18T01:33:45.557Z,1.66
2023-01-18T01:34:45.562Z,1.62
2023-01-18T01:35:45.543Z,1.63
2023-01-18T01:36:45.547Z,1.67
2023-01-18T01:37:45.516Z,1.63
2023-01-18T01:38:45.541Z,1.66
2023-01-18T01:39:46.060Z,1.66
2023-01-18T01:40:45.514Z,1.66
2023-01-18T01:41:45.466Z,1.67
2023-01-18T01:42:45.472Z,1.67
2023-01-18T01:43:45.468Z,1.66
2023-01-18T01:44:45.468Z,1.68
2023-01-18T01:45:45.480Z,1.68
2023-01-18T01:46:45.458Z,1.67
2023-01-18T01:47:45.414Z,1.68
2023-01-18T01:48:45.423Z,1.68
2023-01-18T01:49:45.413Z,1.67
2023-01-18T01:50:45.412Z,1.68
2023-01-18T01:51:45.370Z,1.66
2023-01-18T01:52:45.376Z,1.67
2023-01-18T01:53:45.340Z,1.66
2023-01-18T01:54:45.359Z,1.66
2023-01-18T01:55:45.355Z,1.63
2023-01-18T01:56:45.336Z,1.66
2023-01-18T01:57:45.329Z,1.66
2023-01-18T01:58:45.312Z,1.66
2023-01-18T01:59:45.294Z,1.66
2023-01-18T02:00:45.373Z,1.66
2023-01-18T02:01:45.409Z,1.63
2023-01-18T02:02:45.335Z,1.62
2023-01-18T02:03:45.248Z,1.60
2023-01-18T02:04:45.271Z,1.62
2023-01-18T02:05:45.218Z,1.62
2023-01-18T02:06:45.228Z,1.62
2023-01-18T02:07:45.236Z,1.62
2023-01-18T02:08:45.208Z,1.60
2023-01-18T02:09:45.190Z,1.62
2023-01-18T02:10:45.207Z,1.63
2023-01-18T02:11:45.182Z,1.63
2023-01-18T02:12:45.198Z,1.60
2023-01-18T02:13:45.142Z,1.60
2023-01-18T02:14:45.140Z,1.63
2023-01-18T02:15:45.129Z,1.62
2023-01-18T02:16:45.216Z,1.63
2023-01-18T02:17:45.102Z,1.62
2023-01-18T02:18:45.127Z,1.66
2023-01-18T02:19:45.094Z,1.66
2023-01-18T02:20:45.079Z,1.63
2023-01-18T02:21:45.120Z,1.63
2023-01-18T02:22:45.067Z,1.66
2023-01-18T02:23:45.040Z,1.63
2023-01-18T02:24:45.065Z,1.62
2023-01-18T02:25:45.027Z,1.63
2023-01-18T02:26:45.010Z,1.60
2023-01-18T02:27:44.997Z,1.66
2023-01-18T02:28:44.989Z,1.62
2023-01-18T02:29:44.972Z,1.63
2023-01-18T05:06:47.344Z,1.74
2023-01-18T05:07:48.497Z,1.71
2023-01-18T05:08:48.313Z,1.73
2023-01-18T05:09:48.287Z,1.73
2023-01-18T05:10:48.296Z,1.71
2023-01-18T05:11:48.265Z,1.74
2023-01-18T05:12:48.546Z,1.73
2023-01-18T05:13:48.248Z,1.71
2023-01-18T05:14:48.295Z,1.71
2023-01-18T05:15:48.239Z,1.73
2023-01-18T05:16:48.227Z,1.73
2023-01-18T05:17:48.211Z,1.68
2023-01-18T05:18:48.240Z,1.71
2023-01-18T05:19:48.191Z,1.70
2023-01-18T05:20:48.217Z,1.73
2023-01-18T05:21:48.193Z,1.71
2023-01-18T05:22:48.183Z,1.73
2023-01-18T05:23:48.157Z,1.73
2023-01-18T05:24:48.147Z,1.73
2023-01-18T05:25:48.154Z,1.73
2023-01-18T05:26:48.132Z,1.73
2023-01-18T05:27:48.132Z,1.76
2023-01-18T05:28:48.112Z,1.74
2023-01-18T05:29:48.081Z,1.73
2023-01-18T05:30:48.089Z,1.73
2023-01-18T05:31:48.098Z,1.74
2023-01-18T05:32:48.077Z,1.73
2023-01-18T05:33:48.078Z,1.76
2023-01-18T05:34:48.051Z,1.73
2023-01-18T05:35:48.029Z,1.76
2023-01-18T05:36:48.033Z,1.74
2023-01-18T05:37:48.009Z,1.76
2023-01-18T05:38:48.015Z,1.76
2023-01-18T05:39:47.995Z,1.77
2023-01-18T05:40:47.996Z,1.77
2023-01-18T05:41:47.989Z,1.77
2023-01-18T05:42:48.294Z,1.77
2023-01-18T05:43:47.982Z,1.77
2023-01-18T05:44:47.960Z,1.78
2023-01-18T05:45:47.967Z,1.77
2023-01-18T05:46:47.939Z,1.77
2023-01-18T05:47:47.967Z,1.77
2023-01-18T05:48:47.910Z,1.77
2023-01-18T05:49:47.895Z,1.77
2023-01-18T05:50:47.889Z,1.80
2023-01-18T05:51:47.875Z,1.80
2023-01-18T05:52:47.862Z,1.80
2023-01-18T05:53:47.865Z,1.77
2023-01-18T05:54:47.857Z,1.78
2023-01-18T05:55:47.830Z,1.78
2023-01-18T05:56:47.818Z,1.78
2023-01-18T05:57:47.859Z,1.80
2023-01-18T05:58:47.817Z,1.80
2023-01-18T05:59:47.813Z,1.78
2023-01-18T06:00:47.812Z,1.77
2023-01-18T06:01:47.777Z,1.76
2023-01-18T06:02:47.761Z,1.77
2023-01-18T06:03:47.760Z,1.77
2023-01-18T06:04:47.764Z,1.76
2023-01-18T06:05:47.761Z,1.77
2023-01-18T06:06:47.719Z,1.77
2023-01-18T06:07:47.690Z,1.80
2023-01-18T06:08:47.698Z,1.80
2023-01-18T06:09:47.672Z,1.81
2023-01-18T06:10:47.676Z,1.80
2023-01-18T06:11:47.676Z,1.80
2023-01-18T06:12:47.653Z,1.80
2023-01-18T06:13:47.644Z,1.81
2023-01-18T06:14:47.644Z,1.81
2023-01-18T06:15:49.584Z,1.80
2023-01-18T06:16:47.642Z,1.81
2023-01-18T06:17:47.622Z,1.81
2023-01-18T06:18:47.595Z,1.81
2023-01-18T06:19:47.575Z,1.84
2023-01-18T06:20:47.575Z,1.85
2023-01-18T06:21:47.571Z,1.84
2023-01-18T06:22:47.550Z,1.84
2023-01-18T06:23:47.527Z,1.84
2023-01-18T06:24:47.532Z,1.84
2023-01-18T06:25:47.504Z,1.81
2023-01-18T06:26:47.515Z,1.81
2023-01-18T06:27:47.520Z,1.80
2023-01-18T06:28:47.489Z,1.80
2023-01-18T06:29:47.471Z,1.78
2023-01-18T06:30:47.494Z,1.77
2023-01-18T06:31:47.498Z,1.77
2023-01-18T06:32:47.461Z,1.76
2023-01-18T06:33:47.423Z,1.76
2023-01-18T06:34:47.426Z,1.77
2023-01-18T06:35:47.421Z,1.76
2023-01-18T06:36:47.406Z,1.76
2023-01-18T06:37:47.387Z,1.76
2023-01-18T06:38:47.394Z,1.74
2023-01-18T06:39:47.366Z,1.74
2023-01-18T06:40:47.382Z,1.74
2023-01-18T06:41:47.363Z,1.76
2023-01-18T06:42:47.364Z,1.74
2023-01-18T06:43:47.330Z,1.76
2023-01-18T06:44:47.322Z,1.76
2023-01-18T06:45:47.317Z,1.74
2023-01-18T06:46:47.295Z,1.76
2023-01-18T06:47:47.297Z,1.76
2023-01-18T06:48:47.253Z,1.76
2023-01-18T06:49:47.216Z,1.73
2023-01-18T06:50:47.224Z,1.73
2023-01-18T06:51:47.185Z,1.71
2023-01-18T06:52:47.203Z,1.73
2023-01-18T06:53:47.187Z,1.73
2023-01-18T06:54:47.194Z,1.71
2023-01-18T06:55:47.156Z,1.73
2023-01-18T06:56:47.151Z,1.73
2023-01-18T06:57:47.118Z,1.73
2023-01-18T06:58:47.133Z,1.71
2023-01-18T06:59:47.116Z,1.70
2023-01-18T07:00:47.347Z,1.70
2023-01-18T07:01:47.216Z,1.70
2023-01-18T07:02:47.097Z,1.70
2023-01-18T07:03:47.097Z,1.67
2023-01-18T07:04:47.086Z,1.66
2023-01-18T07:05:47.063Z,1.63
2023-01-18T07:06:47.069Z,1.66
2023-01-18T07:07:47.024Z,1.66
2023-01-18T07:08:47.026Z,1.60
2023-01-18T07:09:47.001Z,1.62
2023-01-18T07:10:47.001Z,1.63
2023-01-18T07:11:46.993Z,1.62
2023-01-18T07:12:46.984Z,1.62
2023-01-18T07:13:46.961Z,1.62
2023-01-18T07:14:46.992Z,1.63
2023-01-18T07:15:46.934Z,1.60
2023-01-18T07:16:46.962Z,1.59
2023-01-18T07:17:46.934Z,1.59
2023-01-18T07:18:46.957Z,1.59
2023-01-18T07:19:46.906Z,1.59
2023-01-18T07:20:46.908Z,1.59
2023-01-18T07:21:46.876Z,1.59
2023-01-18T07:22:46.888Z,1.60
2023-01-18T07:23:46.860Z,1.62
2023-01-18T07:24:46.866Z,1.62
2023-01-18T07:25:46.843Z,1.62
2023-01-18T07:26:46.850Z,1.59
2023-01-18T07:27:46.836Z,1.60
2023-01-18T07:28:46.828Z,1.60
2023-01-18T07:29:49.413Z,1.60
2023-01-18T07:30:46.817Z,1.59
2023-01-18T07:31:46.830Z,1.58
2023-01-18T07:32:46.791Z,1.58
2023-01-18T07:33:46.763Z,1.56
2023-01-18T07:34:46.763Z,1.56
2023-01-18T07:35:46.752Z,1.56
2023-01-18T07:36:46.734Z,1.56
2023-01-18T07:37:46.743Z,1.56
2023-01-18T07:38:46.732Z,1.58
2023-01-18T07:39:46.717Z,1.56
2023-01-18T07:40:46.697Z,1.56
2023-01-18T07:41:46.676Z,1.55
2023-01-18T07:42:46.718Z,1.55
2023-01-18T07:43:46.672Z,1.55
2023-01-18T07:44:46.665Z,1.55
2023-01-18T07:45:46.639Z,1.50
2023-01-18T07:46:46.658Z,1.49
2023-01-18T07:47:46.642Z,1.45
2023-01-18T07:48:46.649Z,1.49
2023-01-18T07:49:46.599Z,1.48
2023-01-18T07:50:46.623Z,1.48
2023-01-18T07:51:46.569Z,1.45
2023-01-18T07:52:46.605Z,1.45
2023-01-18T07:53:46.572Z,1.48
2023-01-18T07:54:46.550Z,1.49
2023-01-18T07:55:46.558Z,1.50
2023-01-18T07:56:46.565Z,1.50
2023-01-18T07:57:46.508Z,1.48
2023-01-18T07:58:46.539Z,1.49
2023-01-18T07:59:46.496Z,1.48
2023-01-18T08:00:46.582Z,1.48
2023-01-18T08:01:46.545Z,1.44
2023-01-18T08:02:46.531Z,1.48
2023-01-18T08:03:46.448Z,1.44
2023-01-18T08:04:46.451Z,1.44
2023-01-18T08:05:46.433Z,1.42
2023-01-18T08:06:46.449Z,1.45
2023-01-18T08:07:46.411Z,1.44
2023-01-18T08:08:46.427Z,1.45
2023-01-18T08:09:46.415Z,1.45
2023-01-18T08:10:46.416Z,1.48
2023-01-18T08:11:46.384Z,1.48
2023-01-18T08:12:46.366Z,1.48
2023-01-18T08:13:46.350Z,1.45
2023-01-18T08:14:46.347Z,1.49
2023-01-18T08:15:46.379Z,1.50
2023-01-18T08:16:46.349Z,1.52
2023-01-18T08:17:46.321Z,1.52
2023-01-18T08:18:46.311Z,1.53
2023-01-18T08:19:46.300Z,1.53
2023-01-18T08:20:46.305Z,1.53
2023-01-18T08:21:46.286Z,1.53
2023-01-18T08:22:46.261Z,1.53
2023-01-18T08:23:46.290Z,1.53
2023-01-18T08:24:46.251Z,1.52
2023-01-18T08:25:46.233Z,1.52
2023-01-18T08:26:46.220Z,1.52
2023-01-18T08:27:46.209Z,1.52
2023-01-18T08:28:46.235Z,1.53
2023-01-18T08:29:46.197Z,1.55
2023-01-18T08:30:46.276Z,1.55
2023-01-18T08:31:46.184Z,1.53
2023-01-18T08:32:46.171Z,1.55
2023-01-18T08:33:46.167Z,1.55
2023-01-18T08:34:46.166Z,1.56
2023-01-18T08:35:46.149Z,1.56
2023-01-18T08:36:46.141Z,1.58
2023-01-18T08:37:46.115Z,1.58
2023-01-18T08:38:46.121Z,1.60
2023-01-18T08:39:46.112Z,1.62
2023-01-18T08:40:46.165Z,1.62
2023-01-18T08:41:46.105Z,1.62
2023-01-18T08:42:46.048Z,1.62
2023-01-18T08:43:46.069Z,1.60
2023-01-18T08:44:46.050Z,1.59
2023-01-18T08:45:46.053Z,1.63
2023-01-18T08:46:46.072Z,1.63
2023-01-18T08:47:46.014Z,1.63
2023-01-18T08:48:45.993Z,1.62
2023-01-18T08:49:46.009Z,1.63
2023-01-18T08:50:46.044Z,1.66
2023-01-18T08:51:46.012Z,1.63
2023-01-18T08:52:45.943Z,1.66
2023-01-18T08:53:45.962Z,1.63
2023-01-18T08:54:45.914Z,1.62
2023-01-18T08:55:45.967Z,1.58
2023-01-18T08:56:45.961Z,1.60
2023-01-18T08:57:45.909Z,1.62
2023-01-18T08:58:46.049Z,1.60
2023-01-18T08:59:45.893Z,1.59
2023-01-18T09:00:46.090Z,1.59
2023-01-18T09:01:45.985Z,1.59
2023-01-18T09:02:45.873Z,1.60
2023-01-18T09:03:45.844Z,1.60
2023-01-18T09:04:45.818Z,1.60
2023-01-18T09:05:45.861Z,1.63
2023-01-18T09:06:45.836Z,1.63
2023-01-18T09:07:45.805Z,1.62
2023-01-18T09:08:45.787Z,1.63
2023-01-18T09:09:45.792Z,1.67
2023-01-18T09:10:45.769Z,1.67
2023-01-18T09:11:45.770Z,1.68
2023-01-18T09:12:45.746Z,1.68
2023-01-18T09:13:59.918Z,1.73
2023-01-18T09:14:45.724Z,1.74
2023-01-18T09:15:45.795Z,1.78
2023-01-18T09:16:45.704Z,1.78
2023-01-18T09:17:45.693Z,1.80
2023-01-18T09:18:45.709Z,1.80
2023-01-18T09:19:45.679Z,1.80
2023-01-18T09:20:45.665Z,1.85
2023-01-18T09:21:45.659Z,1.87
2023-01-18T09:22:45.634Z,1.87
2023-01-18T09:23:45.650Z,1.85
2023-01-18T09:24:45.632Z,1.88
2023-01-18T09:25:45.638Z,1.91
2023-01-18T09:26:45.609Z,1.92
2023-01-18T09:27:45.646Z,1.92
2023-01-18T09:28:45.575Z,1.94
2023-01-18T09:29:45.584Z,1.95
2023-01-18T09:30:45.564Z,1.95
2023-01-18T09:31:45.623Z,2.00
2023-01-18T09:32:45.521Z,2.02
2023-01-18T09:33:52.872Z,2.02
2023-01-18T09:34:45.514Z,2.04
2023-01-18T09:35:45.525Z,2.06
2023-01-18T09:36:45.486Z,2.06
2023-01-18T09:37:45.582Z,2.04
2023-01-18T09:38:45.465Z,2.06
2023-01-18T09:39:51.698Z,2.06
2023-01-18T09:40:45.504Z,2.08
2023-01-18T09:41:45.487Z,2.08
2023-01-18T09:42:45.437Z,2.10
2023-01-18T09:43:45.471Z,2.08
2023-01-18T09:44:45.419Z,2.10
2023-01-18T09:45:45.410Z,2.10
2023-01-18T09:46:45.471Z,2.11
2023-01-18T09:47:45.414Z,2.13
2023-01-18T09:48:45.367Z,2.13
2023-01-18T09:49:45.372Z,2.13
2023-01-18T09:50:45.358Z,2.15
2023-01-18T09:51:45.349Z,2.15
2023-01-18T09:52:45.348Z,2.15
2023-01-18T09:53:45.333Z,2.18
2023-01-18T09:54:45.300Z,2.20
2023-01-18T09:55:45.322Z,2.20
2023-01-18T09:56:45.290Z,2.20
2023-01-18T09:57:45.283Z,2.22
2023-01-18T09:58:45.303Z,2.24
2023-01-18T09:59:45.269Z,2.25
2023-01-18T10:00:45.284Z,2.28
2023-01-18T10:01:45.504Z,2.26
2023-01-18T10:02:45.319Z,2.28
2023-01-18T10:03:45.227Z,2.28
2023-01-18T10:04:45.211Z,2.29
2023-01-18T10:05:45.222Z,2.29
2023-01-18T10:06:45.217Z,2.32
2023-01-18T10:07:45.184Z,2.35
2023-01-18T10:08:45.159Z,2.35
2023-01-18T10:09:45.181Z,2.38
2023-01-18T10:10:45.133Z,2.39
2023-01-18T10:11:45.161Z,2.39
2023-01-18T10:12:45.131Z,2.43
2023-01-18T10:13:45.126Z,2.44
2023-01-18T10:14:45.137Z,2.44
2023-01-18T10:15:45.102Z,2.47
2023-01-18T10:16:45.093Z,2.50
2023-01-18T10:17:45.095Z,2.51
2023-01-18T10:18:45.149Z,2.54
2023-01-18T10:19:45.089Z,2.54
2023-01-18T10:20:45.078Z,2.56
2023-01-18T10:21:45.039Z,2.54
2023-01-18T10:22:45.012Z,2.54
2023-01-18T10:23:45.051Z,2.57
2023-01-18T10:24:44.993Z,2.56
2023-01-18T10:25:45.013Z,2.60
2023-01-18T10:26:44.975Z,2.60
2023-01-18T10:27:44.978Z,2.62
2023-01-18T10:28:44.975Z,2.64
2023-01-18T10:29:44.952Z,2.65
2023-01-18T10:30:44.936Z,2.67
2023-01-18T10:31:45.056Z,2.68
2023-01-18T10:32:44.918Z,2.69
2023-01-18T10:33:44.915Z,2.71
2023-01-18T10:34:44.921Z,2.74
2023-01-18T10:35:44.892Z,2.77
2023-01-18T10:36:44.876Z,2.79
2023-01-18T10:37:44.886Z,2.80
2023-01-18T10:38:44.861Z,2.82
2023-01-18T10:39:44.900Z,2.82
2023-01-18T10:40:44.822Z,2.86
2023-01-18T10:41:44.836Z,2.86
2023-01-18T10:42:44.805Z,2.87
2023-01-18T10:43:44.820Z,2.89
2023-01-18T10:44:44.813Z,2.92
2023-01-18T10:45:44.848Z,2.93
2023-01-18T10:46:44.773Z,2.95
2023-01-18T10:47:44.782Z,2.95
2023-01-18T10:48:44.749Z,2.97
2023-01-18T10:49:44.790Z,3.00
2023-01-18T10:50:44.728Z,3.00
2023-01-18T10:51:44.741Z,3.00
2023-01-18T10:52:44.712Z,3.01
2023-01-18T10:53:44.717Z,3.05
2023-01-18T10:54:44.685Z,3.05
2023-01-18T10:55:44.722Z,3.07
2023-01-18T10:56:44.667Z,3.08
2023-01-18T10:57:44.671Z,3.07
2023-01-18T10:58:44.643Z,3.08
2023-01-18T10:59:44.649Z,3.11
2023-01-18T11:00:44.658Z,3.08
2023-01-18T11:01:44.853Z,3.07
2023-01-18T11:02:44.653Z,3.08
2023-01-18T11:03:44.621Z,3.08
2023-01-18T11:04:44.607Z,3.10
2023-01-18T11:05:44.597Z,3.10
2023-01-18T11:06:44.560Z,3.13
2023-01-18T11:07:44.577Z,3.14
2023-01-18T11:08:44.571Z,3.13
2023-01-18T11:09:44.592Z,3.18
2023-01-18T11:10:44.530Z,3.19
2023-01-18T11:11:44.540Z,3.21
2023-01-18T11:12:44.497Z,3.21
2023-01-18T11:13:44.506Z,3.21
2023-01-18T11:14:44.517Z,3.23
2023-01-18T11:15:44.510Z,3.25
2023-01-18T11:16:44.546Z,3.26
2023-01-18T11:17:44.493Z,3.28
2023-01-18T11:18:44.455Z,3.29
2023-01-18T11:19:44.445Z,3.31
2023-01-18T11:20:44.470Z,3.32
2023-01-18T11:21:44.420Z,3.34
2023-01-18T11:22:44.427Z,3.36
2023-01-18T11:23:44.412Z,3.34
2023-01-18T11:24:44.384Z,3.36
2023-01-18T11:25:44.386Z,3.34
2023-01-18T11:26:44.366Z,3.34
2023-01-18T11:27:44.379Z,3.34
2023-01-18T11:28:44.338Z,3.34
2023-01-18T11:29:44.340Z,3.37
2023-01-18T11:30:44.334Z,3.37
2023-01-18T11:31:44.341Z,3.37
2023-01-18T11:32:44.345Z,3.36
2023-01-18T11:33:44.305Z,3.37
2023-01-18T11:34:44.276Z,3.34
2023-01-18T11:35:44.285Z,3.32
2023-01-18T11:36:44.280Z,3.34
2023-01-18T11:37:44.283Z,3.36
2023-01-18T11:38:44.494Z,3.36
2023-01-18T11:39:45.608Z,3.37
2023-01-18T11:40:44.232Z,3.36
2023-01-18T11:41:44.270Z,3.34
2023-01-18T11:42:44.194Z,3.34
2023-01-18T11:43:44.197Z,3.36
2023-01-18T11:44:44.189Z,3.36
2023-01-18T11:45:45.522Z,3.37
2023-01-18T11:46:44.162Z,3.37
2023-01-18T11:47:44.179Z,3.36
2023-01-18T11:48:44.147Z,3.37
2023-01-18T11:49:44.143Z,3.37
2023-01-18T11:50:44.127Z,3.37
2023-01-18T11:51:45.714Z,3.40
2023-01-18T11:52:44.109Z,3.40
2023-01-18T11:53:44.122Z,3.37
2023-01-18T11:54:44.063Z,3.40
2023-01-18T11:55:44.104Z,3.41
2023-01-18T11:56:44.080Z,3.42
2023-01-18T11:57:44.951Z,3.44
2023-01-18T11:58:44.037Z,3.45
2023-01-18T11:59:44.087Z,3.48
2023-01-18T12:00:44.012Z,3.47
2023-01-18T12:01:44.018Z,3.47
2023-01-18T12:02:44.009Z,3.50
2023-01-18T12:03:44.179Z,3.51
2023-01-18T12:04:43.980Z,3.50
2023-01-18T12:05:45.813Z,3.53
2023-01-18T12:06:43.955Z,3.53
2023-01-18T12:07:44.472Z,3.55
2023-01-18T12:08:43.950Z,3.55
2023-01-18T12:09:43.959Z,3.56
2023-01-18T12:10:43.911Z,3.56
2023-01-18T12:11:45.623Z,3.58
2023-01-18T12:12:43.901Z,3.58
2023-01-18T12:13:43.900Z,3.58
2023-01-18T12:14:43.887Z,3.59
2023-01-18T12:15:43.882Z,3.59
2023-01-18T12:16:43.903Z,3.60
2023-01-18T12:17:46.039Z,3.60
2023-01-18T12:18:43.835Z,3.59
2023-01-18T12:19:43.833Z,3.62
2023-01-18T12:20:43.830Z,3.62
2023-01-18T12:21:43.812Z,3.62
2023-01-18T12:22:43.785Z,3.65
2023-01-18T12:23:43.809Z,3.65
2023-01-18T12:24:45.815Z,3.66
2023-01-18T12:25:43.791Z,3.66
2023-01-18T12:26:43.730Z,3.68
2023-01-18T12:27:43.755Z,3.68
2023-01-18T12:28:43.723Z,3.69
2023-01-18T12:29:43.738Z,3.68
2023-01-18T12:30:43.804Z,3.70
2023-01-18T12:31:43.716Z,3.69
2023-01-18T12:32:43.698Z,3.69
2023-01-18T12:33:44.249Z,3.73
2023-01-18T12:34:43.790Z,3.69
2023-01-18T12:35:43.691Z,3.69
2023-01-18T12:36:43.668Z,3.74
2023-01-18T12:37:43.652Z,3.73
2023-01-18T12:38:43.680Z,3.70
2023-01-18T12:39:43.629Z,3.70
2023-01-18T12:40:43.603Z,3.70
2023-01-18T12:41:43.612Z,3.70
2023-01-18T12:42:43.578Z,3.73
2023-01-18T12:43:43.586Z,3.74
2023-01-18T12:44:43.610Z,3.76
2023-01-18T12:45:43.564Z,3.76
2023-01-18T12:46:43.560Z,3.78
2023-01-18T12:47:43.543Z,3.78
2023-01-18T12:48:43.516Z,3.78
2023-01-18T12:49:43.556Z,3.80
2023-01-18T12:50:43.626Z,3.80
2023-01-18T12:51:43.515Z,3.81
2023-01-18T12:52:43.480Z,3.80
2023-01-18T12:53:43.485Z,3.81
2023-01-18T12:54:43.469Z,3.78
2023-01-18T12:55:43.588Z,3.84
2023-01-18T12:56:43.491Z,3.83
2023-01-18T12:57:45.688Z,3.84
2023-01-18T12:58:43.419Z,3.84
2023-01-18T12:59:43.410Z,3.84
2023-01-18T13:00:43.405Z,3.83
2023-01-18T13:01:43.492Z,3.81
2023-01-18T13:02:43.405Z,3.80
2023-01-18T13:03:43.368Z,3.80
2023-01-18T13:04:43.372Z,3.78
2023-01-18T13:05:43.340Z,3.78
2023-01-18T13:06:43.371Z,3.80
2023-01-18T13:07:43.334Z,3.78
2023-01-18T13:08:44.761Z,3.78
2023-01-18T13:09:43.323Z,3.78
2023-01-18T13:10:43.359Z,3.83
2023-01-18T13:11:43.315Z,3.83
2023-01-18T13:12:43.314Z,3.86
2023-01-18T13:13:43.253Z,3.87
2023-01-18T13:14:43.261Z,3.86
2023-01-18T13:15:43.291Z,3.87
2023-01-18T13:16:43.861Z,3.91
2023-01-18T13:17:43.234Z,3.94
2023-01-18T13:18:43.216Z,3.92
2023-01-18T13:19:43.237Z,3.91
2023-01-18T13:20:43.327Z,3.91
2023-01-18T13:21:43.170Z,3.94
2023-01-18T13:22:43.220Z,3.95
2023-01-18T13:23:43.168Z,3.95
2023-01-18T13:24:43.174Z,3.95
2023-01-18T13:25:43.147Z,3.96
2023-01-18T13:26:43.147Z,3.98
2023-01-18T13:27:43.145Z,3.99
2023-01-18T13:28:43.176Z,3.96
2023-01-18T13:29:43.098Z,3.96
2023-01-18T13:30:43.176Z,3.96
2023-01-18T13:31:43.087Z,3.94
2023-01-18T13:32:43.076Z,3.91
2023-01-18T13:33:43.086Z,3.91
2023-01-18T13:34:48.511Z,3.88
2023-01-18T13:35:43.036Z,3.87
2023-01-18T13:36:43.027Z,3.84
2023-01-18T13:37:43.014Z,3.86
2023-01-18T13:38:43.043Z,3.83
2023-01-18T13:39:42.988Z,3.83
2023-01-18T13:40:42.998Z,3.83
2023-01-18T13:41:42.962Z,3.84
2023-01-18T13:42:43.042Z,3.84
2023-01-18T13:43:42.985Z,3.84
2023-01-18T13:44:42.978Z,3.84
2023-01-18T13:45:42.976Z,3.84
2023-01-18T13:46:43.005Z,3.86
2023-01-18T13:47:42.962Z,3.86
2023-01-18T13:48:42.910Z,3.87
2023-01-18T13:49:42.926Z,3.91
2023-01-18T13:50:42.936Z,3.88
2023-01-18T13:51:42.899Z,3.91
2023-01-18T13:52:42.896Z,3.91
2023-01-18T13:53:42.865Z,3.92
2023-01-18T13:54:43.352Z,3.92
2023-01-18T13:55:42.818Z,3.94
2023-01-18T13:56:42.830Z,3.94
2023-01-18T13:57:42.816Z,3.92
2023-01-18T13:58:42.842Z,3.91
2023-01-18T13:59:42.809Z,3.84
2023-01-18T14:00:42.815Z,3.81
2023-01-18T14:01:43.371Z,3.76
2023-01-18T14:02:42.840Z,3.74
2023-01-18T14:03:42.876Z,3.70
2023-01-18T14:04:42.751Z,3.70
2023-01-18T14:05:42.724Z,3.70
2023-01-18T14:06:42.748Z,3.70
2023-01-18T14:07:42.703Z,3.73
2023-01-18T14:08:42.726Z,3.73
2023-01-18T14:09:42.683Z,3.69
2023-01-18T14:10:42.690Z,3.69
2023-01-18T14:11:42.657Z,3.69
2023-01-18T14:12:42.666Z,3.68
2023-01-18T14:13:42.660Z,3.69
2023-01-18T14:14:42.682Z,3.66
2023-01-18T14:15:42.715Z,3.66
2023-01-18T14:16:42.639Z,3.68
2023-01-18T14:17:57.808Z,3.65
2023-01-18T14:18:42.643Z,3.68
2023-01-18T14:19:42.591Z,3.68
2023-01-18T14:20:42.633Z,3.68
2023-01-18T14:21:42.600Z,3.69
2023-01-18T14:22:42.581Z,3.69
2023-01-18T14:23:42.560Z,3.69
2023-01-18T14:24:42.562Z,3.68
2023-01-18T14:25:42.510Z,3.66
2023-01-18T14:26:42.624Z,3.68
2023-01-18T14:27:42.514Z,3.65
2023-01-18T14:28:42.515Z,3.63
2023-01-18T14:29:42.491Z,3.63
2023-01-18T14:30:42.518Z,3.62
2023-01-18T14:31:42.450Z,3.63
2023-01-18T14:32:42.459Z,3.62
2023-01-18T14:33:42.450Z,3.63
2023-01-18T14:34:42.510Z,3.63
2023-01-18T14:35:42.448Z,3.63
2023-01-18T14:36:42.441Z,3.62
2023-01-18T14:37:42.382Z,3.60
2023-01-18T14:38:42.413Z,3.62
2023-01-18T14:39:42.392Z,3.60
2023-01-18T14:40:42.387Z,3.59
2023-01-18T14:41:42.383Z,3.59
2023-01-18T14:42:42.359Z,3.58
2023-01-18T14:43:42.327Z,3.56
2023-01-18T14:44:57.268Z,3.55
2023-01-18T14:45:42.311Z,3.58
2023-01-18T14:46:42.351Z,3.58
2023-01-18T14:47:42.284Z,3.58
2023-01-18T14:48:42.325Z,3.56
2023-01-18T14:49:42.277Z,3.56
2023-01-18T14:50:42.264Z,3.56
2023-01-18T14:51:42.258Z,3.55
2023-01-18T14:52:42.266Z,3.53
2023-01-18T14:53:42.258Z,3.51
2023-01-18T14:54:42.240Z,3.51
2023-01-18T14:55:42.220Z,3.51
2023-01-18T14:56:42.229Z,3.48
2023-01-18T14:57:42.218Z,3.48
2023-01-18T14:58:42.214Z,3.48
2023-01-18T14:59:42.222Z,3.48
2023-01-18T15:00:42.207Z,3.47
2023-01-18T15:01:42.438Z,3.45
2023-01-18T15:02:42.257Z,3.44
2023-01-18T15:03:42.138Z,3.42
2023-01-18T15:04:42.143Z,3.44
2023-01-18T15:05:42.248Z,3.42
2023-01-18T15:06:42.118Z,3.42
2023-01-18T15:07:42.095Z,3.42
2023-01-18T15:08:42.120Z,3.40
2023-01-18T15:09:42.160Z,3.36
2023-01-18T15:10:42.075Z,3.36
2023-01-18T15:11:42.071Z,3.36
2023-01-18T15:12:42.071Z,3.32
2023-01-18T15:13:42.023Z,3.34
2023-01-18T15:14:42.033Z,3.32
2023-01-18T15:15:42.003Z,3.32
2023-01-18T15:16:42.027Z,3.34
2023-01-18T15:17:41.997Z,3.32
2023-01-18T15:18:42.012Z,3.28
2023-01-18T15:19:41.987Z,3.28
2023-01-18T15:20:41.980Z,3.26
2023-01-18T15:21:41.937Z,3.26
2023-01-18T15:22:41.969Z,3.22
2023-01-18T15:23:41.938Z,3.23
2023-01-18T15:24:41.973Z,3.23
2023-01-18T15:25:41.921Z,3.22
2023-01-18T15:26:42.028Z,3.22
2023-01-18T15:27:42.933Z,3.21
2023-01-18T15:28:41.901Z,3.21
2023-01-18T15:29:41.982Z,3.19
2023-01-18T15:30:41.913Z,3.16
2023-01-18T15:31:41.853Z,3.13
2023-01-18T15:32:41.856Z,3.13
2023-01-18T15:33:41.812Z,3.14
2023-01-18T15:34:41.825Z,3.10
2023-01-18T15:35:41.810Z,3.08
2023-01-18T15:36:41.851Z,3.08
2023-01-18T15:37:41.828Z,3.08
2023-01-18T15:38:41.787Z,3.07
2023-01-18T15:39:41.755Z,3.04
2023-01-18T15:40:41.802Z,3.04
2023-01-18T15:41:41.747Z,3.03
2023-01-18T15:42:41.761Z,3.05
2023-01-18T15:43:41.718Z,3.03
2023-01-18T15:44:41.744Z,3.01
2023-01-18T15:45:41.747Z,3.01
2023-01-18T15:46:41.735Z,3.01
2023-01-18T15:47:41.673Z,3.01
2023-01-18T15:48:41.769Z,3.00
2023-01-18T15:49:41.732Z,2.98
2023-01-18T15:50:41.676Z,2.97
2023-01-18T15:51:41.785Z,2.97
2023-01-18T15:52:43.859Z,2.92
2023-01-18T15:53:41.615Z,2.90
2023-01-18T15:54:41.660Z,2.87